sensor_id;sensor_type;location;lat;lon;timestamp;P1;durP1;ratioP1;P2;durP2;ratioP2
21181;SDS011;10749;46.296;7.524;2024-01-15T00:01:01;13.77;;;8.33;;
21181;SDS011;10749;46.296;7.524;2024-01-15T00:03:27;13.77;;;8.83;;
21181;SDS011;10749;46.296;7.524;2024-01-15T00:05:52;11.57;;;7.80;;
21181;SDS011;10749;46.296;7.524;2024-01-15T00:08:17;15.10;;;9.07;;
21181;SDS011;10749;46.296;7.524;2024-01-15T00:10:43;12.93;;;8.50;;
21181;SDS011;10749;46.296;7.524;2024-01-15T00:13:08;13.70;;;8.73;;
21181;SDS011;10749;46.296;7.524;2024-01-15T00:15:34;13.43;;;8.97;;
21181;SDS011;10749;46.296;7.524;2024-01-15T00:17:59;13.97;;;8.27;;
21181;SDS011;10749;46.296;7.524;2024-01-15T00:20:24;13.30;;;8.10;;
21181;SDS011;10749;46.296;7.524;2024-01-15T00:22:49;14.40;;;8.47;;
21181;SDS011;10749;46.296;7.524;2024-01-15T00:25:15;13.30;;;8.73;;
21181;SDS011;10749;46.296;7.524;2024-01-15T00:27:40;12.63;;;8.27;;
21181;SDS011;10749;46.296;7.524;2024-01-15T00:30:05;14.33;;;8.23;;
21181;SDS011;10749;46.296;7.524;2024-01-15T00:32:31;14.63;;;8.53;;
21181;SDS011;10749;46.296;7.524;2024-01-15T00:34:56;12.03;;;8.57;;
21181;SDS011;10749;46.296;7.524;2024-01-15T00:37:22;12.50;;;8.40;;
21181;SDS011;10749;46.296;7.524;2024-01-15T00:39:47;12.80;;;8.60;;
21181;SDS011;10749;46.296;7.524;2024-01-15T00:42:12;14.07;;;8.93;;
21181;SDS011;10749;46.296;7.524;2024-01-15T00:44:38;13.27;;;7.97;;
21181;SDS011;10749;46.296;7.524;2024-01-15T00:47:03;13.00;;;8.17;;
21181;SDS011;10749;46.296;7.524;2024-01-15T00:49:28;10.97;;;7.97;;
21181;SDS011;10749;46.296;7.524;2024-01-15T00:51:54;13.40;;;8.63;;
21181;SDS011;10749;46.296;7.524;2024-01-15T00:54:19;14.77;;;8.53;;
21181;SDS011;10749;46.296;7.524;2024-01-15T00:56:44;17.10;;;9.03;;
21181;SDS011;10749;46.296;7.524;2024-01-15T00:59:09;13.93;;;9.23;;
21181;SDS011;10749;46.296;7.524;2024-01-15T01:01:35;13.97;;;8.83;;
21181;SDS011;10749;46.296;7.524;2024-01-15T01:04:01;12.47;;;8.53;;
21181;SDS011;10749;46.296;7.524;2024-01-15T01:06:26;13.60;;;8.53;;
21181;SDS011;10749;46.296;7.524;2024-01-15T01:08:51;11.77;;;8.27;;
21181;SDS011;10749;46.296;7.524;2024-01-15T01:11:17;12.60;;;8.80;;
21181;SDS011;10749;46.296;7.524;2024-01-15T01:13:42;13.73;;;9.20;;
21181;SDS011;10749;46.296;7.524;2024-01-15T01:16:08;17.27;;;8.50;;
21181;SDS011;10749;46.296;7.524;2024-01-15T01:18:33;13.63;;;8.63;;
21181;SDS011;10749;46.296;7.524;2024-01-15T01:20:58;19.10;;;9.67;;
21181;SDS011;10749;46.296;7.524;2024-01-15T01:23:25;14.20;;;8.97;;
21181;SDS011;10749;46.296;7.524;2024-01-15T01:25:50;14.73;;;9.37;;
21181;SDS011;10749;46.296;7.524;2024-01-15T01:28:15;15.17;;;10.07;;
21181;SDS011;10749;46.296;7.524;2024-01-15T01:30:40;15.67;;;9.33;;
21181;SDS011;10749;46.296;7.524;2024-01-15T01:33:06;14.53;;;9.77;;
21181;SDS011;10749;46.296;7.524;2024-01-15T01:35:31;13.93;;;9.30;;
21181;SDS011;10749;46.296;7.524;2024-01-15T01:37:56;13.87;;;9.17;;
21181;SDS011;10749;46.296;7.524;2024-01-15T01:40:21;14.33;;;9.60;;
21181;SDS011;10749;46.296;7.524;2024-01-15T01:42:47;15.67;;;9.50;;
21181;SDS011;10749;46.296;7.524;2024-01-15T01:45:13;15.63;;;10.47;;
21181;SDS011;10749;46.296;7.524;2024-01-15T01:47:38;16.13;;;9.67;;
21181;SDS011;10749;46.296;7.524;2024-01-15T01:50:04;15.13;;;9.77;;
21181;SDS011;10749;46.296;7.524;2024-01-15T01:52:30;15.77;;;10.13;;
21181;SDS011;10749;46.296;7.524;2024-01-15T01:54:55;15.90;;;9.63;;
21181;SDS011;10749;46.296;7.524;2024-01-15T01:57:21;16.47;;;10.10;;
21181;SDS011;10749;46.296;7.524;2024-01-15T01:59:47;13.37;;;9.70;;
21181;SDS011;10749;46.296;7.524;2024-01-15T02:02:12;16.30;;;10.20;;
21181;SDS011;10749;46.296;7.524;2024-01-15T02:04:38;16.77;;;10.33;;
21181;SDS011;10749;46.296;7.524;2024-01-15T02:07:04;17.60;;;10.37;;
21181;SDS011;10749;46.296;7.524;2024-01-15T02:09:30;15.53;;;9.50;;
21181;SDS011;10749;46.296;7.524;2024-01-15T02:11:55;14.00;;;9.93;;
21181;SDS011;10749;46.296;7.524;2024-01-15T02:14:21;15.20;;;9.80;;
21181;SDS011;10749;46.296;7.524;2024-01-15T02:16:46;15.53;;;10.13;;
21181;SDS011;10749;46.296;7.524;2024-01-15T02:19:18;14.97;;;10.23;;
21181;SDS011;10749;46.296;7.524;2024-01-15T02:21:43;15.70;;;10.40;;
21181;SDS011;10749;46.296;7.524;2024-01-15T02:24:09;17.87;;;10.37;;
21181;SDS011;10749;46.296;7.524;2024-01-15T02:26:34;13.67;;;10.23;;
21181;SDS011;10749;46.296;7.524;2024-01-15T02:29:01;18.47;;;11.27;;
21181;SDS011;10749;46.296;7.524;2024-01-15T02:31:27;15.53;;;10.37;;
21181;SDS011;10749;46.296;7.524;2024-01-15T02:33:52;16.10;;;10.63;;
21181;SDS011;10749;46.296;7.524;2024-01-15T02:36:18;17.90;;;11.23;;
21181;SDS011;10749;46.296;7.524;2024-01-15T02:38:43;17.93;;;11.33;;
21181;SDS011;10749;46.296;7.524;2024-01-15T02:41:08;17.37;;;11.27;;
21181;SDS011;10749;46.296;7.524;2024-01-15T02:43:34;16.00;;;11.37;;
21181;SDS011;10749;46.296;7.524;2024-01-15T02:45:59;16.80;;;10.80;;
21181;SDS011;10749;46.296;7.524;2024-01-15T02:48:24;17.17;;;11.47;;
21181;SDS011;10749;46.296;7.524;2024-01-15T02:50:50;18.53;;;12.10;;
21181;SDS011;10749;46.296;7.524;2024-01-15T02:53:15;16.33;;;10.93;;
21181;SDS011;10749;46.296;7.524;2024-01-15T02:55:40;17.57;;;12.00;;
21181;SDS011;10749;46.296;7.524;2024-01-15T02:58:05;17.17;;;11.90;;
21181;SDS011;10749;46.296;7.524;2024-01-15T03:00:31;17.90;;;12.07;;
21181;SDS011;10749;46.296;7.524;2024-01-15T03:02:56;18.87;;;11.73;;
21181;SDS011;10749;46.296;7.524;2024-01-15T03:05:21;22.20;;;12.50;;
21181;SDS011;10749;46.296;7.524;2024-01-15T03:07:47;18.97;;;11.10;;
21181;SDS011;10749;46.296;7.524;2024-01-15T03:10:12;19.67;;;11.60;;
21181;SDS011;10749;46.296;7.524;2024-01-15T03:12:38;18.53;;;11.60;;
21181;SDS011;10749;46.296;7.524;2024-01-15T03:15:03;17.03;;;10.97;;
21181;SDS011;10749;46.296;7.524;2024-01-15T03:17:29;18.63;;;10.63;;
21181;SDS011;10749;46.296;7.524;2024-01-15T03:19:54;18.43;;;11.27;;
21181;SDS011;10749;46.296;7.524;2024-01-15T03:22:19;20.03;;;12.20;;
21181;SDS011;10749;46.296;7.524;2024-01-15T03:24:45;16.10;;;11.67;;
21181;SDS011;10749;46.296;7.524;2024-01-15T03:27:10;17.30;;;11.73;;
21181;SDS011;10749;46.296;7.524;2024-01-15T03:29:35;19.40;;;12.73;;
21181;SDS011;10749;46.296;7.524;2024-01-15T03:32:01;18.53;;;11.93;;
21181;SDS011;10749;46.296;7.524;2024-01-15T03:34:26;18.60;;;12.00;;
21181;SDS011;10749;46.296;7.524;2024-01-15T03:36:51;19.20;;;12.70;;
21181;SDS011;10749;46.296;7.524;2024-01-15T03:39:16;21.07;;;13.57;;
21181;SDS011;10749;46.296;7.524;2024-01-15T03:41:42;21.50;;;13.70;;
21181;SDS011;10749;46.296;7.524;2024-01-15T03:44:07;21.53;;;13.03;;
21181;SDS011;10749;46.296;7.524;2024-01-15T03:46:32;21.47;;;12.77;;
21181;SDS011;10749;46.296;7.524;2024-01-15T03:48:57;21.43;;;13.60;;
21181;SDS011;10749;46.296;7.524;2024-01-15T03:51:23;19.80;;;11.97;;
21181;SDS011;10749;46.296;7.524;2024-01-15T03:53:48;21.50;;;12.77;;
21181;SDS011;10749;46.296;7.524;2024-01-15T03:56:13;21.43;;;12.60;;
21181;SDS011;10749;46.296;7.524;2024-01-15T03:58:39;20.03;;;12.60;;
21181;SDS011;10749;46.296;7.524;2024-01-15T04:01:07;20.73;;;11.97;;
21181;SDS011;10749;46.296;7.524;2024-01-15T04:03:33;23.60;;;13.40;;
21181;SDS011;10749;46.296;7.524;2024-01-15T04:05:59;23.33;;;13.27;;
21181;SDS011;10749;46.296;7.524;2024-01-15T04:08:24;22.37;;;14.13;;
21181;SDS011;10749;46.296;7.524;2024-01-15T04:10:49;21.63;;;14.50;;
21181;SDS011;10749;46.296;7.524;2024-01-15T04:13:15;24.00;;;16.40;;
21181;SDS011;10749;46.296;7.524;2024-01-15T04:15:40;22.50;;;14.43;;
21181;SDS011;10749;46.296;7.524;2024-01-15T04:18:05;23.43;;;14.60;;
21181;SDS011;10749;46.296;7.524;2024-01-15T04:20:30;24.27;;;14.20;;
21181;SDS011;10749;46.296;7.524;2024-01-15T04:22:56;22.67;;;13.50;;
21181;SDS011;10749;46.296;7.524;2024-01-15T04:25:21;22.33;;;13.27;;
21181;SDS011;10749;46.296;7.524;2024-01-15T04:27:46;20.80;;;12.40;;
21181;SDS011;10749;46.296;7.524;2024-01-15T04:30:12;20.50;;;12.37;;
21181;SDS011;10749;46.296;7.524;2024-01-15T04:32:37;20.60;;;13.90;;
21181;SDS011;10749;46.296;7.524;2024-01-15T04:35:03;20.70;;;13.90;;
21181;SDS011;10749;46.296;7.524;2024-01-15T04:37:28;20.60;;;13.80;;
21181;SDS011;10749;46.296;7.524;2024-01-15T04:39:53;19.63;;;13.03;;
21181;SDS011;10749;46.296;7.524;2024-01-15T04:42:20;20.23;;;12.57;;
21181;SDS011;10749;46.296;7.524;2024-01-15T04:44:46;18.57;;;11.87;;
21181;SDS011;10749;46.296;7.524;2024-01-15T04:47:11;17.40;;;11.70;;
21181;SDS011;10749;46.296;7.524;2024-01-15T04:49:36;18.13;;;11.90;;
21181;SDS011;10749;46.296;7.524;2024-01-15T04:52:02;18.07;;;11.27;;
21181;SDS011;10749;46.296;7.524;2024-01-15T04:54:27;17.10;;;11.47;;
21181;SDS011;10749;46.296;7.524;2024-01-15T04:56:52;19.27;;;11.70;;
21181;SDS011;10749;46.296;7.524;2024-01-15T04:59:17;16.63;;;11.73;;
21181;SDS011;10749;46.296;7.524;2024-01-15T05:01:43;15.73;;;11.43;;
21181;SDS011;10749;46.296;7.524;2024-01-15T05:04:08;17.73;;;11.57;;
21181;SDS011;10749;46.296;7.524;2024-01-15T05:06:33;18.00;;;11.00;;
21181;SDS011;10749;46.296;7.524;2024-01-15T05:08:59;19.30;;;11.53;;
21181;SDS011;10749;46.296;7.524;2024-01-15T05:11:24;16.13;;;10.90;;
21181;SDS011;10749;46.296;7.524;2024-01-15T05:13:49;17.60;;;10.07;;
21181;SDS011;10749;46.296;7.524;2024-01-15T05:16:15;15.17;;;10.57;;
21181;SDS011;10749;46.296;7.524;2024-01-15T05:18:40;15.43;;;9.90;;
21181;SDS011;10749;46.296;7.524;2024-01-15T05:21:05;16.13;;;10.27;;
21181;SDS011;10749;46.296;7.524;2024-01-15T05:23:31;17.07;;;10.83;;
21181;SDS011;10749;46.296;7.524;2024-01-15T05:25:56;17.63;;;9.87;;
21181;SDS011;10749;46.296;7.524;2024-01-15T05:28:22;13.90;;;9.67;;
21181;SDS011;10749;46.296;7.524;2024-01-15T05:30:47;18.37;;;9.90;;
21181;SDS011;10749;46.296;7.524;2024-01-15T05:33:12;16.23;;;10.07;;
21181;SDS011;10749;46.296;7.524;2024-01-15T05:35:38;18.23;;;10.80;;
21181;SDS011;10749;46.296;7.524;2024-01-15T05:38:03;14.80;;;9.83;;
21181;SDS011;10749;46.296;7.524;2024-01-15T05:40:28;13.23;;;10.03;;
21181;SDS011;10749;46.296;7.524;2024-01-15T05:42:54;18.27;;;10.97;;
21181;SDS011;10749;46.296;7.524;2024-01-15T05:45:19;19.17;;;11.27;;
21181;SDS011;10749;46.296;7.524;2024-01-15T05:47:44;17.43;;;11.70;;
21181;SDS011;10749;46.296;7.524;2024-01-15T05:50:10;17.13;;;10.93;;
21181;SDS011;10749;46.296;7.524;2024-01-15T05:52:35;17.87;;;10.83;;
21181;SDS011;10749;46.296;7.524;2024-01-15T05:55:01;17.33;;;11.20;;
21181;SDS011;10749;46.296;7.524;2024-01-15T05:57:26;18.43;;;10.90;;
21181;SDS011;10749;46.296;7.524;2024-01-15T05:59:51;18.70;;;11.50;;
21181;SDS011;10749;46.296;7.524;2024-01-15T06:02:17;16.03;;;10.77;;
21181;SDS011;10749;46.296;7.524;2024-01-15T06:04:42;15.53;;;9.97;;
21181;SDS011;10749;46.296;7.524;2024-01-15T06:07:07;14.83;;;10.50;;
21181;SDS011;10749;46.296;7.524;2024-01-15T06:09:33;13.80;;;8.73;;
21181;SDS011;10749;46.296;7.524;2024-01-15T06:11:58;14.17;;;8.97;;
21181;SDS011;10749;46.296;7.524;2024-01-15T06:14:24;13.87;;;9.30;;
21181;SDS011;10749;46.296;7.524;2024-01-15T06:16:49;15.07;;;8.63;;
21181;SDS011;10749;46.296;7.524;2024-01-15T06:19:14;15.47;;;8.87;;
21181;SDS011;10749;46.296;7.524;2024-01-15T06:21:39;13.50;;;8.67;;
21181;SDS011;10749;46.296;7.524;2024-01-15T06:24:05;12.10;;;8.00;;
21181;SDS011;10749;46.296;7.524;2024-01-15T06:26:30;13.97;;;9.27;;
21181;SDS011;10749;46.296;7.524;2024-01-15T06:28:56;12.27;;;8.07;;
21181;SDS011;10749;46.296;7.524;2024-01-15T06:31:21;16.47;;;8.73;;
21181;SDS011;10749;46.296;7.524;2024-01-15T06:33:46;12.30;;;8.73;;
21181;SDS011;10749;46.296;7.524;2024-01-15T06:36:13;12.93;;;8.27;;
21181;SDS011;10749;46.296;7.524;2024-01-15T06:38:39;12.87;;;8.40;;
21181;SDS011;10749;46.296;7.524;2024-01-15T06:41:04;11.87;;;7.77;;
21181;SDS011;10749;46.296;7.524;2024-01-15T06:43:29;10.93;;;7.37;;
21181;SDS011;10749;46.296;7.524;2024-01-15T06:45:55;11.53;;;7.90;;
21181;SDS011;10749;46.296;7.524;2024-01-15T06:48:20;11.83;;;8.27;;
21181;SDS011;10749;46.296;7.524;2024-01-15T06:50:45;15.73;;;8.80;;
21181;SDS011;10749;46.296;7.524;2024-01-15T06:53:11;14.60;;;8.97;;
21181;SDS011;10749;46.296;7.524;2024-01-15T06:55:36;14.03;;;8.27;;
21181;SDS011;10749;46.296;7.524;2024-01-15T06:58:02;10.37;;;8.50;;
21181;SDS011;10749;46.296;7.524;2024-01-15T07:00:28;11.90;;;7.60;;
21181;SDS011;10749;46.296;7.524;2024-01-15T07:02:53;11.40;;;8.10;;
21181;SDS011;10749;46.296;7.524;2024-01-15T07:05:20;13.40;;;8.00;;
21181;SDS011;10749;46.296;7.524;2024-01-15T07:07:46;12.83;;;8.20;;
21181;SDS011;10749;46.296;7.524;2024-01-15T07:10:12;12.27;;;7.83;;
21181;SDS011;10749;46.296;7.524;2024-01-15T07:12:38;10.43;;;7.33;;
21181;SDS011;10749;46.296;7.524;2024-01-15T07:15:03;13.43;;;7.97;;
21181;SDS011;10749;46.296;7.524;2024-01-15T07:17:29;11.87;;;7.53;;
21181;SDS011;10749;46.296;7.524;2024-01-15T07:19:54;11.23;;;7.70;;
21181;SDS011;10749;46.296;7.524;2024-01-15T07:22:19;11.20;;;7.10;;
21181;SDS011;10749;46.296;7.524;2024-01-15T07:24:45;12.20;;;7.70;;
21181;SDS011;10749;46.296;7.524;2024-01-15T07:27:10;11.17;;;7.47;;
21181;SDS011;10749;46.296;7.524;2024-01-15T07:29:35;12.33;;;8.27;;
21181;SDS011;10749;46.296;7.524;2024-01-15T07:32:02;11.13;;;7.90;;
21181;SDS011;10749;46.296;7.524;2024-01-15T07:34:28;12.40;;;7.93;;
21181;SDS011;10749;46.296;7.524;2024-01-15T07:36:54;11.07;;;7.50;;
21181;SDS011;10749;46.296;7.524;2024-01-15T07:39:19;10.67;;;7.13;;
21181;SDS011;10749;46.296;7.524;2024-01-15T07:41:44;13.80;;;8.33;;
21181;SDS011;10749;46.296;7.524;2024-01-15T07:44:09;12.87;;;8.20;;
21181;SDS011;10749;46.296;7.524;2024-01-15T07:46:35;10.80;;;7.43;;
21181;SDS011;10749;46.296;7.524;2024-01-15T07:49:00;13.03;;;8.50;;
21181;SDS011;10749;46.296;7.524;2024-01-15T07:51:25;12.33;;;7.43;;
21181;SDS011;10749;46.296;7.524;2024-01-15T07:53:54;12.33;;;7.43;;
21181;SDS011;10749;46.296;7.524;2024-01-15T07:56:20;12.50;;;7.73;;
21181;SDS011;10749;46.296;7.524;2024-01-15T07:58:46;12.30;;;7.63;;
21181;SDS011;10749;46.296;7.524;2024-01-15T08:01:11;10.07;;;7.90;;
21181;SDS011;10749;46.296;7.524;2024-01-15T08:03:37;11.50;;;8.20;;
21181;SDS011;10749;46.296;7.524;2024-01-15T08:06:02;12.27;;;7.80;;
21181;SDS011;10749;46.296;7.524;2024-01-15T08:08:27;12.57;;;7.57;;
21181;SDS011;10749;46.296;7.524;2024-01-15T08:10:53;13.20;;;7.93;;
21181;SDS011;10749;46.296;7.524;2024-01-15T08:13:18;12.63;;;7.80;;
21181;SDS011;10749;46.296;7.524;2024-01-15T08:15:45;12.77;;;8.70;;
21181;SDS011;10749;46.296;7.524;2024-01-15T08:18:10;13.47;;;8.80;;
21181;SDS011;10749;46.296;7.524;2024-01-15T08:20:35;14.83;;;9.57;;
21181;SDS011;10749;46.296;7.524;2024-01-15T08:23:00;13.60;;;9.43;;
21181;SDS011;10749;46.296;7.524;2024-01-15T08:25:26;14.27;;;9.27;;
21181;SDS011;10749;46.296;7.524;2024-01-15T08:27:51;11.73;;;7.50;;
21181;SDS011;10749;46.296;7.524;2024-01-15T08:30:17;11.30;;;7.20;;
21181;SDS011;10749;46.296;7.524;2024-01-15T08:32:43;12.80;;;8.60;;
21181;SDS011;10749;46.296;7.524;2024-01-15T08:35:09;10.10;;;7.40;;
21181;SDS011;10749;46.296;7.524;2024-01-15T08:37:35;13.57;;;7.47;;
21181;SDS011;10749;46.296;7.524;2024-01-15T08:40:00;10.67;;;7.47;;
21181;SDS011;10749;46.296;7.524;2024-01-15T08:42:26;11.63;;;8.60;;
21181;SDS011;10749;46.296;7.524;2024-01-15T08:44:51;10.93;;;8.17;;
21181;SDS011;10749;46.296;7.524;2024-01-15T08:47:16;10.13;;;7.07;;
21181;SDS011;10749;46.296;7.524;2024-01-15T08:49:42;11.57;;;7.73;;
21181;SDS011;10749;46.296;7.524;2024-01-15T08:52:09;10.03;;;7.53;;
21181;SDS011;10749;46.296;7.524;2024-01-15T08:54:34;10.73;;;7.40;;
21181;SDS011;10749;46.296;7.524;2024-01-15T08:56:59;9.43;;;6.30;;
21181;SDS011;10749;46.296;7.524;2024-01-15T08:59:25;10.87;;;6.30;;
21181;SDS011;10749;46.296;7.524;2024-01-15T09:01:51;9.83;;;5.97;;
21181;SDS011;10749;46.296;7.524;2024-01-15T09:04:17;10.67;;;6.63;;
21181;SDS011;10749;46.296;7.524;2024-01-15T09:06:44;9.20;;;6.70;;
21181;SDS011;10749;46.296;7.524;2024-01-15T09:09:10;10.07;;;6.87;;
21181;SDS011;10749;46.296;7.524;2024-01-15T09:11:36;11.87;;;6.87;;
21181;SDS011;10749;46.296;7.524;2024-01-15T09:14:01;7.73;;;5.33;;
21181;SDS011;10749;46.296;7.524;2024-01-15T09:16:26;7.33;;;5.00;;
21181;SDS011;10749;46.296;7.524;2024-01-15T09:18:52;7.23;;;4.80;;
21181;SDS011;10749;46.296;7.524;2024-01-15T09:21:17;8.07;;;5.50;;
21181;SDS011;10749;46.296;7.524;2024-01-15T09:23:42;9.83;;;6.30;;
21181;SDS011;10749;46.296;7.524;2024-01-15T09:26:08;10.77;;;6.80;;
21181;SDS011;10749;46.296;7.524;2024-01-15T09:28:34;9.83;;;6.03;;
21181;SDS011;10749;46.296;7.524;2024-01-15T09:30:59;9.03;;;5.90;;
21181;SDS011;10749;46.296;7.524;2024-01-15T09:33:24;9.13;;;6.30;;
21181;SDS011;10749;46.296;7.524;2024-01-15T09:35:50;8.53;;;6.17;;
21181;SDS011;10749;46.296;7.524;2024-01-15T09:38:15;8.47;;;5.57;;
21181;SDS011;10749;46.296;7.524;2024-01-15T09:40:40;7.53;;;6.03;;
21181;SDS011;10749;46.296;7.524;2024-01-15T09:43:08;9.43;;;6.10;;
21181;SDS011;10749;46.296;7.524;2024-01-15T09:45:34;9.27;;;6.07;;
21181;SDS011;10749;46.296;7.524;2024-01-15T09:47:59;9.00;;;6.60;;
21181;SDS011;10749;46.296;7.524;2024-01-15T09:50:24;10.83;;;7.10;;
21181;SDS011;10749;46.296;7.524;2024-01-15T09:52:50;10.40;;;7.10;;
21181;SDS011;10749;46.296;7.524;2024-01-15T09:55:17;10.43;;;6.87;;
21181;SDS011;10749;46.296;7.524;2024-01-15T09:57:43;10.90;;;7.00;;
21181;SDS011;10749;46.296;7.524;2024-01-15T10:00:09;10.80;;;6.87;;
21181;SDS011;10749;46.296;7.524;2024-01-15T10:02:36;9.70;;;5.97;;
21181;SDS011;10749;46.296;7.524;2024-01-15T10:05:01;11.63;;;7.00;;
21181;SDS011;10749;46.296;7.524;2024-01-15T10:07:27;10.93;;;7.33;;
21181;SDS011;10749;46.296;7.524;2024-01-15T10:09:54;11.63;;;7.70;;
21181;SDS011;10749;46.296;7.524;2024-01-15T10:12:21;11.83;;;6.87;;
21181;SDS011;10749;46.296;7.524;2024-01-15T10:14:48;12.17;;;6.63;;
21181;SDS011;10749;46.296;7.524;2024-01-15T10:17:14;10.43;;;6.77;;
21181;SDS011;10749;46.296;7.524;2024-01-15T10:19:42;12.13;;;7.10;;
21181;SDS011;10749;46.296;7.524;2024-01-15T10:22:08;11.07;;;6.60;;
21181;SDS011;10749;46.296;7.524;2024-01-15T10:24:37;10.97;;;7.07;;
21181;SDS011;10749;46.296;7.524;2024-01-15T10:27:04;10.90;;;6.17;;
21181;SDS011;10749;46.296;7.524;2024-01-15T10:29:31;9.43;;;6.40;;
21181;SDS011;10749;46.296;7.524;2024-01-15T10:31:56;10.33;;;7.13;;
21181;SDS011;10749;46.296;7.524;2024-01-15T10:34:22;9.27;;;7.00;;
21181;SDS011;10749;46.296;7.524;2024-01-15T10:36:47;11.47;;;6.63;;
21181;SDS011;10749;46.296;7.524;2024-01-15T10:39:20;11.33;;;6.50;;
21181;SDS011;10749;46.296;7.524;2024-01-15T10:41:46;10.97;;;7.00;;
21181;SDS011;10749;46.296;7.524;2024-01-15T10:44:11;10.37;;;6.90;;
21181;SDS011;10749;46.296;7.524;2024-01-15T10:46:36;11.63;;;7.20;;
21181;SDS011;10749;46.296;7.524;2024-01-15T10:49:02;9.27;;;6.30;;
21181;SDS011;10749;46.296;7.524;2024-01-15T10:51:29;8.63;;;6.10;;
21181;SDS011;10749;46.296;7.524;2024-01-15T10:53:54;7.10;;;5.63;;
21181;SDS011;10749;46.296;7.524;2024-01-15T10:56:21;9.20;;;5.63;;
21181;SDS011;10749;46.296;7.524;2024-01-15T10:58:47;8.70;;;4.77;;
21181;SDS011;10749;46.296;7.524;2024-01-15T11:01:15;6.70;;;5.10;;
21181;SDS011;10749;46.296;7.524;2024-01-15T11:03:42;7.63;;;5.17;;
21181;SDS011;10749;46.296;7.524;2024-01-15T11:06:17;8.27;;;5.47;;
21181;SDS011;10749;46.296;7.524;2024-01-15T11:08:49;6.70;;;4.73;;
21181;SDS011;10749;46.296;7.524;2024-01-15T11:11:15;7.20;;;5.27;;
21181;SDS011;10749;46.296;7.524;2024-01-15T11:13:42;9.07;;;5.20;;
21181;SDS011;10749;46.296;7.524;2024-01-15T11:16:10;7.60;;;4.97;;
21181;SDS011;10749;46.296;7.524;2024-01-15T11:18:37;7.93;;;5.27;;
21181;SDS011;10749;46.296;7.524;2024-01-15T11:23:42;6.67;;;4.90;;
21181;SDS011;10749;46.296;7.524;2024-01-15T11:28:53;6.30;;;5.07;;
21181;SDS011;10749;46.296;7.524;2024-01-15T11:31:20;7.67;;;5.60;;
21181;SDS011;10749;46.296;7.524;2024-01-15T11:33:51;7.53;;;5.40;;
21181;SDS011;10749;46.296;7.524;2024-01-15T11:36:16;7.63;;;5.10;;
21181;SDS011;10749;46.296;7.524;2024-01-15T11:38:42;8.73;;;5.27;;
21181;SDS011;10749;46.296;7.524;2024-01-15T11:41:13;8.43;;;5.40;;
21181;SDS011;10749;46.296;7.524;2024-01-15T11:43:42;9.50;;;5.27;;
21181;SDS011;10749;46.296;7.524;2024-01-15T11:46:11;9.47;;;6.30;;
21181;SDS011;10749;46.296;7.524;2024-01-15T11:48:43;8.10;;;5.07;;
21181;SDS011;10749;46.296;7.524;2024-01-15T11:51:12;9.03;;;5.93;;
21181;SDS011;10749;46.296;7.524;2024-01-15T11:53:44;6.40;;;4.87;;
21181;SDS011;10749;46.296;7.524;2024-01-15T11:56:15;7.27;;;4.97;;
21181;SDS011;10749;46.296;7.524;2024-01-15T11:58:42;7.90;;;4.77;;
21181;SDS011;10749;46.296;7.524;2024-01-15T12:01:08;8.17;;;4.73;;
21181;SDS011;10749;46.296;7.524;2024-01-15T12:03:34;6.13;;;4.80;;
21181;SDS011;10749;46.296;7.524;2024-01-15T12:05:59;7.63;;;5.03;;
21181;SDS011;10749;46.296;7.524;2024-01-15T12:08:25;6.47;;;4.97;;
21181;SDS011;10749;46.296;7.524;2024-01-15T12:10:51;6.97;;;4.73;;
21181;SDS011;10749;46.296;7.524;2024-01-15T12:13:17;8.13;;;5.53;;
21181;SDS011;10749;46.296;7.524;2024-01-15T12:15:46;8.67;;;5.10;;
21181;SDS011;10749;46.296;7.524;2024-01-15T12:18:13;7.40;;;5.00;;
21181;SDS011;10749;46.296;7.524;2024-01-15T12:20:40;7.83;;;4.70;;
21181;SDS011;10749;46.296;7.524;2024-01-15T12:23:07;8.80;;;4.97;;
21181;SDS011;10749;46.296;7.524;2024-01-15T12:25:33;5.83;;;4.30;;
21181;SDS011;10749;46.296;7.524;2024-01-15T12:27:59;8.97;;;4.80;;
21181;SDS011;10749;46.296;7.524;2024-01-15T12:30:28;7.60;;;4.73;;
21181;SDS011;10749;46.296;7.524;2024-01-15T12:32:56;8.30;;;5.33;;
21181;SDS011;10749;46.296;7.524;2024-01-15T12:35:23;7.57;;;5.30;;
21181;SDS011;10749;46.296;7.524;2024-01-15T12:37:49;8.73;;;4.57;;
21181;SDS011;10749;46.296;7.524;2024-01-15T12:40:18;7.70;;;4.63;;
21181;SDS011;10749;46.296;7.524;2024-01-15T12:42:44;7.90;;;5.23;;
21181;SDS011;10749;46.296;7.524;2024-01-15T12:45:10;8.10;;;5.07;;
21181;SDS011;10749;46.296;7.524;2024-01-15T12:47:37;7.87;;;5.23;;
21181;SDS011;10749;46.296;7.524;2024-01-15T12:50:06;7.43;;;5.07;;
21181;SDS011;10749;46.296;7.524;2024-01-15T12:52:33;8.10;;;5.17;;
21181;SDS011;10749;46.296;7.524;2024-01-15T12:54:58;8.00;;;5.30;;
21181;SDS011;10749;46.296;7.524;2024-01-15T12:57:23;6.93;;;4.63;;
21181;SDS011;10749;46.296;7.524;2024-01-15T12:59:49;6.90;;;4.70;;
21181;SDS011;10749;46.296;7.524;2024-01-15T13:02:17;10.43;;;5.90;;
21181;SDS011;10749;46.296;7.524;2024-01-15T13:04:43;7.40;;;5.10;;
21181;SDS011;10749;46.296;7.524;2024-01-15T13:07:08;11.93;;;7.13;;
21181;SDS011;10749;46.296;7.524;2024-01-15T13:09:34;7.07;;;4.70;;
21181;SDS011;10749;46.296;7.524;2024-01-15T13:12:01;8.10;;;5.30;;
21181;SDS011;10749;46.296;7.524;2024-01-15T13:14:27;8.57;;;4.80;;
21181;SDS011;10749;46.296;7.524;2024-01-15T13:16:52;7.87;;;4.90;;
21181;SDS011;10749;46.296;7.524;2024-01-15T13:19:18;8.17;;;4.70;;
21181;SDS011;10749;46.296;7.524;2024-01-15T13:21:44;6.03;;;4.77;;
21181;SDS011;10749;46.296;7.524;2024-01-15T13:24:09;6.23;;;4.13;;
21181;SDS011;10749;46.296;7.524;2024-01-15T13:26:36;6.03;;;4.37;;
21181;SDS011;10749;46.296;7.524;2024-01-15T13:29:02;5.43;;;4.43;;
21181;SDS011;10749;46.296;7.524;2024-01-15T13:31:28;6.53;;;4.50;;
21181;SDS011;10749;46.296;7.524;2024-01-15T13:33:54;5.90;;;4.20;;
21181;SDS011;10749;46.296;7.524;2024-01-15T13:36:20;5.77;;;4.50;;
21181;SDS011;10749;46.296;7.524;2024-01-15T13:38:46;6.23;;;4.40;;
21181;SDS011;10749;46.296;7.524;2024-01-15T13:41:12;7.10;;;4.30;;
21181;SDS011;10749;46.296;7.524;2024-01-15T13:43:37;7.27;;;4.23;;
21181;SDS011;10749;46.296;7.524;2024-01-15T13:46:02;6.13;;;4.17;;
21181;SDS011;10749;46.296;7.524;2024-01-15T13:48:29;6.37;;;4.47;;
21181;SDS011;10749;46.296;7.524;2024-01-15T13:50:55;6.87;;;4.70;;
21181;SDS011;10749;46.296;7.524;2024-01-15T13:53:21;7.23;;;4.37;;
21181;SDS011;10749;46.296;7.524;2024-01-15T13:55:46;7.17;;;4.50;;
21181;SDS011;10749;46.296;7.524;2024-01-15T13:58:12;5.87;;;4.60;;
21181;SDS011;10749;46.296;7.524;2024-01-15T14:00:38;8.90;;;4.43;;
21181;SDS011;10749;46.296;7.524;2024-01-15T14:03:04;6.87;;;4.10;;
21181;SDS011;10749;46.296;7.524;2024-01-15T14:05:30;6.43;;;4.20;;
21181;SDS011;10749;46.296;7.524;2024-01-15T14:07:55;6.03;;;3.73;;
21181;SDS011;10749;46.296;7.524;2024-01-15T14:10:20;6.57;;;3.53;;
21181;SDS011;10749;46.296;7.524;2024-01-15T14:12:45;5.00;;;3.43;;
21181;SDS011;10749;46.296;7.524;2024-01-15T14:15:11;6.77;;;3.57;;
21181;SDS011;10749;46.296;7.524;2024-01-15T14:17:36;5.77;;;3.47;;
21181;SDS011;10749;46.296;7.524;2024-01-15T14:20:02;5.87;;;3.77;;
21181;SDS011;10749;46.296;7.524;2024-01-15T14:22:30;6.77;;;3.73;;
21181;SDS011;10749;46.296;7.524;2024-01-15T14:24:55;6.93;;;3.67;;
21181;SDS011;10749;46.296;7.524;2024-01-15T14:27:20;6.43;;;4.00;;
21181;SDS011;10749;46.296;7.524;2024-01-15T14:29:46;5.87;;;4.03;;
21181;SDS011;10749;46.296;7.524;2024-01-15T14:32:11;5.70;;;3.43;;